Time;durP1;ratioP1;P1;durP2;ratioP2;P2;SDS_P1;SDS_P2;PMS_P1;PMS_P2;Temp;Humidity;BMP_temperature;BMP_pressure;BME280_temperature;BME280_humidity;BME280_pressure;Samples;Min_cycle;Max_cycle;Signal;HPM_P1;HPM_P2
2023/04/28 00:01:35;;;;;;;6.30;4.30;;;14.90;71.60;;;;;;6084796;23;20786;-44
2023/04/28 00:04:03;;;;;;;6.57;4.10;;;14.90;71.90;;;;;;6087698;23;20388;-44
2023/04/28 00:06:33;;;;;;;4.50;4.10;;;14.90;72.10;;;;;;6086842;23;20436;-46
2023/04/28 00:09:02;;;;;;;5.77;3.97;;;14.90;72.40;;;;;;6087579;23;20756;-43
2023/04/28 00:11:32;;;;;;;5.03;4.27;;;14.90;72.40;;;;;;6087156;23;20411;-46
2023/04/28 00:14:00;;;;;;;5.50;4.67;;;14.90;72.30;;;;;;6086106;23;20399;-45
2023/04/28 00:16:29;;;;;;;5.77;4.87;;;14.90;72.30;;;;;;6087227;23;21016;-45
2023/04/28 00:18:57;;;;;;;5.20;4.63;;;14.90;72.50;;;;;;6087030;23;20439;-44
2023/04/28 00:21:27;;;;;;;4.87;4.37;;;14.90;72.60;;;;;;6086622;23;20406;-45
2023/04/28 00:23:56;;;;;;;5.80;4.00;;;14.90;72.80;;;;;;6087203;23;20871;-45
2023/04/28 00:26:24;;;;;;;7.63;4.20;;;14.90;73.10;;;;;;6086426;23;21001;-45
2023/04/28 00:28:54;;;;;;;5.50;3.97;;;14.90;73.00;;;;;;6086079;23;20850;-45
2023/04/28 00:31:23;;;;;;;6.70;3.70;;;14.80;72.90;;;;;;6087154;23;20471;-45
2023/04/28 00:33:51;;;;;;;4.40;4.00;;;14.90;73.10;;;;;;6087193;23;20820;-44
2023/04/28 00:36:20;;;;;;;5.00;3.97;;;14.90;73.20;;;;;;6085721;23;20454;-45
2023/04/28 00:38:48;;;;;;;5.43;4.10;;;14.90;73.30;;;;;;6087055;23;20415;-44
2023/04/28 00:41:17;;;;;;;4.87;3.63;;;14.90;73.20;;;;;;6087052;23;20404;-45
2023/04/28 00:43:47;;;;;;;5.73;3.00;;;14.90;73.10;;;;;;6085984;23;20396;-45
2023/04/28 00:46:22;;;;;;;3.80;3.13;;;14.90;73.20;;;;;;6086501;23;20401;-45
2023/04/28 00:48:51;;;;;;;4.03;3.27;;;14.90;73.40;;;;;;6085904;23;20384;-45
2023/04/28 00:51:20;;;;;;;3.60;3.13;;;14.90;73.50;;;;;;6086440;23;20380;-45
2023/04/28 00:53:48;;;;;;;4.20;3.80;;;14.90;73.70;;;;;;6087564;23;20438;-46
2023/04/28 00:56:17;;;;;;;5.03;4.27;;;14.90;73.70;;;;;;6087440;23;20946;-45
2023/04/28 00:58:45;;;;;;;4.90;3.70;;;14.90;73.60;;;;;;6086802;23;20749;-45
2023/04/28 01:01:14;;;;;;;6.80;3.90;;;14.90;73.70;;;;;;6085674;23;20393;-45
2023/04/28 01:03:44;;;;;;;4.10;3.77;;;14.90;73.70;;;;;;6087148;23;20879;-45
2023/04/28 01:06:14;;;;;;;5.13;3.80;;;14.90;73.80;;;;;;6057022;23;20930;-44
2023/04/28 01:08:43;;;;;;;4.10;3.50;;;14.90;74.00;;;;;;6087292;23;20469;-45
2023/04/28 01:11:16;;;;;;;4.17;3.17;;;14.90;74.20;;;;;;6086678;23;20416;-45
2023/04/28 01:13:53;;;;;;;3.77;3.20;;;14.90;74.10;;;;;;6088011;23;20376;-44
2023/04/28 01:16:22;;;;;;;3.87;3.47;;;14.90;74.30;;;;;;6085484;23;20419;-45
2023/04/28 01:18:52;;;;;;;5.20;3.87;;;14.90;74.40;;;;;;6087225;23;20410;-45
2023/04/28 01:21:27;;;;;;;4.17;3.37;;;14.90;74.50;;;;;;6086090;23;20368;-45
2023/04/28 01:23:58;;;;;;;4.10;3.50;;;14.90;74.70;;;;;;6087347;23;20391;-43
2023/04/28 01:26:27;;;;;;;5.87;2.73;;;14.90;74.80;;;;;;6085953;23;20764;-44
2023/04/28 01:28:55;;;;;;;3.57;2.90;;;14.90;74.90;;;;;;6086120;23;20400;-45
2023/04/28 01:31:24;;;;;;;3.83;3.43;;;14.90;74.90;;;;;;6087168;23;20396;-45
2023/04/28 01:33:53;;;;;;;5.60;4.10;;;14.90;74.90;;;;;;6087097;23;20446;-44
2023/04/28 01:36:22;;;;;;;3.87;3.50;;;14.90;74.90;;;;;;6084759;23;20984;-44
2023/04/28 01:38:52;;;;;;;4.27;3.50;;;14.80;74.90;;;;;;6087519;23;20631;-45
2023/04/28 01:41:22;;;;;;;4.67;3.10;;;14.90;75.10;;;;;;6086941;23;20402;-44
2023/04/28 01:43:51;;;;;;;5.37;3.50;;;14.90;75.10;;;;;;6086416;23;20848;-46
2023/04/28 01:46:19;;;;;;;5.23;3.60;;;14.90;75.10;;;;;;6085821;23;20911;-46
2023/04/28 01:48:48;;;;;;;4.77;3.40;;;14.90;75.20;;;;;;6087292;23;20391;-45
2023/04/28 01:51:16;;;;;;;4.13;3.73;;;14.90;75.20;;;;;;6087204;23;20394;-44
2023/04/28 01:53:45;;;;;;;3.47;3.17;;;14.90;75.20;;;;;;6086712;23;20724;-45
2023/04/28 01:56:13;;;;;;;4.40;4.00;;;14.90;75.40;;;;;;6085650;23;20524;-45
2023/04/28 01:58:44;;;;;;;5.73;3.47;;;14.90;75.60;;;;;;6085711;23;20403;-45
2023/04/28 02:01:14;;;;;;;4.17;3.47;;;14.90;75.70;;;;;;6086059;23;20424;-46
2023/04/28 02:03:44;;;;;;;3.63;3.30;;;14.80;75.70;;;;;;6086669;23;20498;-45
2023/04/28 02:06:15;;;;;;;4.70;3.87;;;14.90;76.10;;;;;;6087793;23;20470;-45
2023/04/28 02:08:44;;;;;;;3.40;3.10;;;14.90;76.00;;;;;;6087379;23;20403;-45
2023/04/28 02:11:14;;;;;;;3.97;3.57;;;14.90;76.00;;;;;;6086959;23;20368;-45
2023/04/28 02:13:44;;;;;;;5.33;4.20;;;14.90;76.10;;;;;;6086576;23;20400;-45
2023/04/28 02:16:13;;;;;;;4.27;3.33;;;14.90;76.20;;;;;;6061325;23;20420;-45
2023/04/28 02:18:43;;;;;;;4.37;3.77;;;14.90;77.50;;;;;;6086622;23;20400;-45
2023/04/28 02:21:12;;;;;;;4.23;3.30;;;14.90;76.30;;;;;;6086451;23;20755;-45
2023/04/28 02:23:40;;;;;;;3.80;3.37;;;14.90;76.30;;;;;;6087453;23;20396;-45
2023/04/28 02:26:09;;;;;;;4.20;3.10;;;14.80;76.40;;;;;;6086212;23;20978;-45
2023/04/28 02:28:37;;;;;;;3.03;2.73;;;14.80;76.50;;;;;;6085598;23;20409;-45
2023/04/28 02:31:09;;;;;;;3.33;2.70;;;14.80;76.50;;;;;;6086571;23;20446;-45
2023/04/28 02:33:38;;;;;;;4.50;3.33;;;14.80;76.60;;;;;;6111631;23;20431;-45
2023/04/28 02:36:08;;;;;;;5.13;3.20;;;14.80;76.70;;;;;;6084900;23;20422;-46
2023/04/28 02:38:36;;;;;;;4.10;3.13;;;14.80;76.80;;;;;;6087108;23;20375;-45
2023/04/28 02:41:08;;;;;;;3.93;3.53;;;14.80;76.70;;;;;;6086095;23;20424;-46
2023/04/28 02:43:37;;;;;;;3.10;2.80;;;14.80;77.00;;;;;;6086980;23;20757;-45
2023/04/28 02:46:07;;;;;;;3.60;3.30;;;14.80;76.80;;;;;;6086861;23;20415;-45
2023/04/28 02:48:36;;;;;;;4.30;3.13;;;14.80;77.00;;;;;;6085714;23;20420;-45
2023/04/28 02:51:05;;;;;;;4.67;3.30;;;14.80;76.80;;;;;;6086801;23;20824;-45
2023/04/28 02:53:34;;;;;;;5.90;3.70;;;14.80;76.90;;;;;;6085141;23;20469;-45
2023/04/28 02:56:04;;;;;;;2.87;2.50;;;14.80;76.80;;;;;;6086656;23;20938;-45
2023/04/28 02:58:33;;;;;;;3.47;3.07;;;14.80;76.90;;;;;;6061228;23;20752;-46
2023/04/28 03:01:02;;;;;;;5.40;2.83;;;14.80;76.90;;;;;;6084780;23;20419;-44
2023/04/28 03:03:32;;;;;;;3.40;3.10;;;14.80;77.00;;;;;;6085369;23;20536;-44
2023/04/28 03:06:01;;;;;;;3.63;3.03;;;14.80;77.20;;;;;;6086504;23;20415;-45
2023/04/28 03:08:29;;;;;;;7.07;3.80;;;14.80;77.20;;;;;;6085730;23;20439;-46
2023/04/28 03:10:58;;;;;;;3.87;3.00;;;14.80;77.30;;;;;;6086791;23;20400;-45
2023/04/28 03:13:29;;;;;;;4.00;3.60;;;14.80;77.30;;;;;;6084268;23;20530;-45
2023/04/28 03:15:58;;;;;;;4.60;3.47;;;14.80;77.50;;;;;;6086622;23;20416;-45
2023/04/28 03:18:28;;;;;;;4.13;3.10;;;14.80;77.60;;;;;;6084935;23;20447;-45
2023/04/28 03:20:58;;;;;;;3.07;2.77;;;14.80;77.60;;;;;;6086648;23;20412;-44
2023/04/28 03:23:28;;;;;;;4.00;3.20;;;14.80;77.50;;;;;;6084753;23;20431;-45
2023/04/28 03:25:56;;;;;;;3.40;3.00;;;14.80;77.40;;;;;;6087164;23;20507;-45
2023/04/28 03:28:26;;;;;;;4.27;3.00;;;14.80;77.60;;;;;;6085188;23;20781;-45
2023/04/28 03:30:54;;;;;;;4.50;3.03;;;14.80;77.50;;;;;;6087692;23;20388;-45
2023/04/28 03:33:23;;;;;;;3.50;3.20;;;14.80;77.30;;;;;;6086185;23;20516;-45
2023/04/28 03:35:53;;;;;;;5.33;2.80;;;14.80;77.30;;;;;;6087420;23;20428;-45
2023/04/28 03:38:23;;;;;;;4.10;2.67;;;14.80;77.40;;;;;;6086497;23;20440;-44
2023/04/28 03:40:52;;;;;;;3.50;3.03;;;14.80;77.40;;;;;;6086888;23;20412;-45
2023/04/28 03:43:41;;;;;;;3.17;2.73;;;14.80;77.50;;;;;;6134255;23;20761;-46
2023/04/28 03:46:20;;;;;;;3.80;2.60;;;14.80;77.50;;;;;;6062462;23;20489;-45
2023/04/28 03:48:49;;;;;;;3.40;3.10;;;14.80;77.40;;;;;;6087429;23;20405;-45
2023/04/28 03:51:20;;;;;;;3.33;3.00;;;14.80;77.50;;;;;;6085867;23;20376;-46
2023/04/28 03:53:49;;;;;;;3.80;3.20;;;14.80;77.60;;;;;;6086488;23;20471;-46
2023/04/28 03:56:18;;;;;;;3.00;2.70;;;14.80;77.60;;;;;;6087009;23;20412;-45
2023/04/28 03:58:46;;;;;;;4.40;3.87;;;14.80;77.60;;;;;;6086893;23;20466;-45
2023/04/28 04:01:15;;;;;;;5.30;3.50;;;14.80;77.90;;;;;;6085741;23;20418;-45
2023/04/28 04:03:43;;;;;;;5.00;4.30;;;14.70;77.80;;;;;;6087639;23;20938;-45
2023/04/28 04:06:13;;;;;;;3.53;3.03;;;14.70;78.00;;;;;;6086724;23;20911;-45
2023/04/28 04:08:42;;;;;;;4.50;3.43;;;14.70;78.00;;;;;;6062963;23;20434;-43
2023/04/28 04:11:12;;;;;;;4.77;3.73;;;14.80;78.10;;;;;;6087310;23;20396;-45
2023/04/28 04:13:41;;;;;;;5.67;3.50;;;14.70;77.90;;;;;;6085604;23;20407;-44
2023/04/28 04:16:14;;;;;;;3.83;3.00;;;14.70;77.90;;;;;;6087536;23;21312;-44
2023/04/28 04:18:43;;;;;;;4.30;3.70;;;14.70;77.90;;;;;;6087027;23;20852;-44
2023/04/28 04:21:19;;;;;;;4.70;3.50;;;14.70;77.80;;;;;;6087176;23;20466;-44
2023/04/28 04:23:50;;;;;;;4.50;3.27;;;14.70;77.80;;;;;;6086785;23;20462;-44
2023/04/28 04:26:20;;;;;;;3.50;3.17;;;14.70;79.10;;;;;;6087169;23;20420;-45
2023/04/28 04:28:50;;;;;;;4.00;3.10;;;14.70;77.80;;;;;;6087032;23;20416;-45
2023/04/28 04:31:19;;;;;;;3.10;2.70;;;14.70;77.90;;;;;;6085961;23;20381;-43
2023/04/28 04:33:48;;;;;;;5.40;3.13;;;14.80;78.10;;;;;;6086638;23;20690;-45
2023/04/28 04:36:19;;;;;;;5.33;3.73;;;14.70;77.80;;;;;;6085599;23;20777;-44
2023/04/28 04:38:48;;;;;;;4.80;4.40;;;14.70;78.00;;;;;;6087977;23;20426;-45
2023/04/28 04:41:20;;;;;;;5.27;4.07;;;14.70;78.40;;;;;;6110401;23;20511;-45
2023/04/28 04:43:52;;;;;;;4.83;3.80;;;14.80;78.50;;;;;;6086671;23;20902;-45
2023/04/28 04:46:23;;;;;;;2.97;2.67;;;14.70;78.30;;;;;;6088052;23;20443;-45
2023/04/28 04:48:52;;;;;;;3.50;3.20;;;14.70;78.30;;;;;;6088233;23;20377;-43
2023/04/28 04:51:21;;;;;;;3.90;3.50;;;14.70;78.20;;;;;;6087574;23;20451;-44
2023/04/28 04:53:50;;;;;;;4.77;3.70;;;14.70;78.30;;;;;;6087481;23;20883;-45
2023/04/28 04:56:20;;;;;;;3.50;3.20;;;14.70;78.30;;;;;;6086633;23;20416;-43
2023/04/28 04:58:50;;;;;;;6.50;3.70;;;14.70;78.30;;;;;;6087407;23;20384;-44
2023/04/28 05:01:37;;;;;;;4.23;3.30;;;14.70;78.30;;;;;;6087580;23;20474;-44
2023/04/28 05:04:05;;;;;;;4.10;3.37;;;14.70;78.40;;;;;;6088196;23;20487;-45
2023/04/28 05:06:36;;;;;;;4.60;4.00;;;14.70;78.30;;;;;;6087647;23;20911;-45
2023/04/28 05:09:06;;;;;;;3.53;3.23;;;14.70;78.50;;;;;;6087139;23;20402;-44
2023/04/28 05:11:36;;;;;;;4.20;3.30;;;14.70;78.70;;;;;;6086754;23;20483;-45
2023/04/28 05:14:04;;;;;;;4.53;3.90;;;14.70;78.70;;;;;;6087054;23;20407;-45
2023/04/28 05:16:33;;;;;;;3.90;3.60;;;14.70;78.70;;;;;;6086553;23;20473;-44
2023/04/28 05:19:12;;;;;;;3.90;3.20;;;14.70;78.90;;;;;;6087349;23;20415;-45
2023/04/28 05:21:43;;;;;;;4.03;3.63;;;14.70;78.80;;;;;;6087940;23;20422;-45
2023/04/28 05:24:13;;;;;;;3.80;2.90;;;14.70;78.80;;;;;;6088259;23;20419;-44
2023/04/28 05:26:43;;;;;;;4.43;3.90;;;14.70;78.90;;;;;;6088285;23;20444;-45
2023/04/28 05:29:12;;;;;;;5.83;3.70;;;14.70;78.90;;;;;;6087204;23;20867;-45
2023/04/28 05:31:41;;;;;;;6.43;3.30;;;14.70;78.90;;;;;;6087627;23;20697;-44
2023/04/28 05:34:12;;;;;;;3.97;3.57;;;14.70;78.90;;;;;;6087897;23;20397;-45
2023/04/28 05:36:42;;;;;;;5.47;3.73;;;14.70;79.00;;;;;;6062043;23;20444;-44
2023/04/28 05:39:15;;;;;;;5.10;3.40;;;14.70;79.00;;;;;;6088874;23;20712;-45
2023/04/28 05:41:45;;;;;;;4.63;3.87;;;14.70;79.00;;;;;;6087115;23;20466;-46
2023/04/28 05:44:14;;;;;;;3.67;3.00;;;14.60;78.90;;;;;;6087369;23;20752;-45
2023/04/28 05:46:43;;;;;;;3.67;3.00;;;14.60;78.90;;;;;;6085657;23;20544;-44
2023/04/28 05:49:11;;;;;;;4.10;3.70;;;14.60;79.00;;;;;;6087161;23;20388;-46
2023/04/28 05:51:41;;;;;;;4.03;3.33;;;14.60;78.90;;;;;;6085765;23;20419;-45
2023/04/28 05:54:09;;;;;;;5.63;3.77;;;14.60;79.10;;;;;;6087529;23;20871;-45
2023/04/28 05:56:44;;;;;;;3.83;3.43;;;14.60;79.10;;;;;;6086469;23;20521;-45
2023/04/28 05:59:15;;;;;;;4.10;3.10;;;14.60;79.10;;;;;;6087307;23;20384;-45
2023/04/28 06:01:44;;;;;;;5.10;3.30;;;14.60;79.10;;;;;;6088644;23;20427;-45
2023/04/28 06:04:12;;;;;;;4.20;3.27;;;14.60;79.00;;;;;;6087495;23;20388;-45
2023/04/28 06:06:43;;;;;;;4.30;3.37;;;14.60;79.00;;;;;;6087336;23;20511;-44
2023/04/28 06:09:12;;;;;;;4.13;3.57;;;14.60;79.00;;;;;;6087364;23;20733;-45
2023/04/28 06:11:40;;;;;;;3.50;2.80;;;14.60;79.10;;;;;;6086529;23;20841;-44
2023/04/28 06:14:10;;;;;;;3.90;3.40;;;14.60;79.00;;;;;;6087060;23;20453;-45
2023/04/28 06:16:38;;;;;;;3.93;2.90;;;14.60;79.00;;;;;;6087920;23;20424;-45
2023/04/28 06:19:07;;;;;;;4.43;4.00;;;14.60;79.00;;;;;;6088215;23;20396;-45
2023/04/28 06:21:35;;;;;;;3.50;3.20;;;14.60;79.10;;;;;;6086162;23;20443;-45
2023/04/28 06:24:04;;;;;;;3.50;3.17;;;14.60;79.20;;;;;;6087205;23;20392;-45
2023/04/28 06:26:33;;;;;;;3.73;3.00;;;14.60;79.30;;;;;;6087696;23;20450;-44
2023/04/28 06:29:01;;;;;;;3.90;3.30;;;14.60;79.20;;;;;;6086706;23;20399;-45
2023/04/28 06:31:32;;;;;;;4.00;3.60;;;14.60;79.40;;;;;;6086266;23;20438;-45
2023/04/28 06:34:00;;;;;;;3.40;2.97;;;14.60;79.60;;;;;;6087231;23;20407;-44
2023/04/28 06:36:29;;;;;;;6.50;3.50;;;14.60;79.50;;;;;;6085302;23;20436;-45
2023/04/28 06:38:58;;;;;;;3.50;3.20;;;14.60;79.50;;;;;;6089593;23;20487;-45
2023/04/28 06:41:28;;;;;;;4.03;3.60;;;14.60;79.60;;;;;;6086782;23;20875;-44
2023/04/28 06:43:57;;;;;;;3.00;2.70;;;14.60;79.90;;;;;;6086954;23;20735;-44
2023/04/28 06:46:30;;;;;;;4.27;3.53;;;14.60;79.80;;;;;;6086601;23;20968;-45
2023/04/28 06:49:00;;;;;;;4.43;3.40;;;14.60;79.80;;;;;;6087611;23;20403;-45
2023/04/28 06:51:29;;;;;;;5.43;3.60;;;14.60;80.10;;;;;;6086400;23;20391;-45
2023/04/28 06:53:57;;;;;;;5.30;4.53;;;14.60;80.60;;;;;;6086607;23;20415;-45
2023/04/28 06:56:26;;;;;;;4.30;3.40;;;14.60;82.30;;;;;;6088188;23;20953;-44
2023/04/28 06:58:57;;;;;;;5.27;3.67;;;14.60;80.70;;;;;;6085903;23;20395;-44
2023/04/28 07:01:26;;;;;;;7.93;3.40;;;14.60;81.20;;;;;;6087321;23;20396;-45
2023/04/28 07:03:55;;;;;;;4.13;3.23;;;14.60;81.00;;;;;;6086522;23;20424;-44
2023/04/28 07:06:26;;;;;;;4.10;3.20;;;14.60;81.20;;;;;;6088617;23;20416;-45
2023/04/28 07:08:55;;;;;;;4.00;3.60;;;14.60;80.70;;;;;;6088071;23;20392;-45
2023/04/28 07:11:23;;;;;;;4.20;3.53;;;14.60;80.90;;;;;;6085491;23;20402;-44
2023/04/28 07:13:52;;;;;;;4.40;2.80;;;14.60;81.30;;;;;;6085034;23;20763;-45
2023/04/28 07:16:21;;;;;;;4.27;2.97;;;14.60;81.00;;;;;;6086739;23;20404;-45
2023/04/28 07:18:49;;;;;;;4.07;3.37;;;14.60;80.70;;;;;;6086943;23;20400;-44
2023/04/28 07:21:18;;;;;;;3.60;3.30;;;14.60;80.80;;;;;;6086873;23;20776;-44
2023/04/28 07:23:48;;;;;;;4.10;3.50;;;14.60;80.90;;;;;;6087085;23;20428;-45
2023/04/28 07:26:17;;;;;;;5.73;3.70;;;14.60;81.00;;;;;;6088711;23;20404;-45
2023/04/28 07:28:46;;;;;;;4.50;3.90;;;14.60;81.30;;;;;;6062505;23;20389;-45
2023/04/28 07:31:15;;;;;;;4.40;4.00;;;14.60;81.90;;;;;;6087184;23;20391;-44
2023/04/28 07:33:44;;;;;;;4.87;3.40;;;14.60;81.80;;;;;;6087871;23;20446;-44
2023/04/28 07:36:14;;;;;;;4.27;3.87;;;14.60;82.20;;;;;;6086578;23;20426;-45
2023/04/28 07:38:43;;;;;;;3.50;3.20;;;14.60;82.70;;;;;;6110415;23;20507;-45
2023/04/28 07:41:13;;;;;;;3.80;3.40;;;14.60;82.30;;;;;;6086483;23;20369;-44
2023/04/28 07:43:42;;;;;;;6.50;3.70;;;14.60;82.90;;;;;;6085567;23;20444;-44
2023/04/28 07:46:12;;;;;;;4.10;3.70;;;14.60;83.50;;;;;;6086506;23;20435;-43
2023/04/28 07:48:41;;;;;;;4.70;4.27;;;14.60;83.40;;;;;;6085576;23;20420;-44
2023/04/28 07:51:09;;;;;;;4.17;3.80;;;14.60;83.40;;;;;;6086631;23;20376;-44
2023/04/28 07:53:38;;;;;;;5.53;4.07;;;14.60;84.10;;;;;;6085326;23;20819;-44
2023/04/28 07:56:06;;;;;;;8.17;3.70;;;14.60;84.10;;;;;;6086445;23;20462;-45
2023/04/28 07:58:36;;;;;;;4.30;3.90;;;14.60;84.70;;;;;;6085488;23;20436;-43
2023/04/28 08:01:05;;;;;;;5.03;4.07;;;14.60;84.80;;;;;;6088339;23;20364;-44
2023/04/28 08:03:33;;;;;;;4.07;3.50;;;14.60;84.80;;;;;;6087607;23;20796;-44
2023/04/28 08:06:02;;;;;;;4.07;3.67;;;14.60;85.10;;;;;;6087216;23;20435;-45
2023/04/28 08:08:31;;;;;;;4.03;3.63;;;14.60;85.70;;;;;;6085652;23;20919;-44
2023/04/28 08:10:59;;;;;;;5.33;3.97;;;14.60;84.70;;;;;;6086825;23;20372;-44
2023/04/28 08:13:28;;;;;;;4.30;3.90;;;14.60;84.80;;;;;;6082363;23;20463;-43
2023/04/28 08:15:59;;;;;;;4.97;3.40;;;14.60;85.70;;;;;;6085841;23;20438;-45
2023/04/28 08:18:29;;;;;;;5.40;3.67;;;14.60;85.20;;;;;;6086337;23;20435;-45
2023/04/28 08:21:03;;;;;;;5.10;4.60;;;14.60;86.90;;;;;;6085575;23;20442;-44
2023/04/28 08:23:33;;;;;;;5.27;3.50;;;14.60;87.80;;;;;;6087823;23;20942;-45
2023/04/28 08:26:02;;;;;;;4.70;4.30;;;14.60;87.80;;;;;;6088945;23;20466;-44
2023/04/28 08:28:32;;;;;;;4.47;3.70;;;14.60;87.80;;;;;;6087287;23;20436;-44
2023/04/28 08:31:04;;;;;;;5.67;4.37;;;14.60;87.80;;;;;;6063304;23;20392;-44
2023/04/28 08:33:32;;;;;;;5.10;4.60;;;14.60;87.80;;;;;;6087524;23;20476;-45
2023/04/28 08:36:02;;;;;;;5.47;5.00;;;14.60;88.10;;;;;;6088206;23;20414;-44
2023/04/28 08:38:31;;;;;;;4.50;3.40;;;14.60;88.90;;;;;;6088015;23;20463;-45
2023/04/28 08:41:04;;;;;;;5.23;4.73;;;14.60;90.10;;;;;;6087481;23;20411;-44
2023/04/28 08:46:42;;;;;;;3.43;3.13;;;14.60;90.30;;;;;;6072473;23;20529;-64
2023/04/28 08:49:15;;;;;;;4.47;4.07;;;14.60;90.00;;;;;;6088481;23;20411;-66
2023/04/28 08:51:46;;;;;;;4.53;3.17;;;14.60;90.50;;;;;;6057984;23;20431;-66
2023/04/28 08:54:16;;;;;;;3.67;3.37;;;14.60;90.60;;;;;;6056660;23;20480;-66
2023/04/28 08:56:57;;;;;;;3.97;3.60;;;14.60;90.20;;;;;;6031229;23;20957;-65
2023/04/28 08:59:26;;;;;;;4.30;2.80;;;14.60;90.10;;;;;;6033920;23;20380;-65
2023/04/28 09:01:59;;;;;;;4.20;3.10;;;14.60;89.10;;;;;;6032490;23;20483;-65
2023/04/28 09:04:27;;;;;;;3.67;3.10;;;14.60;89.20;;;;;;6032749;23;20417;-64
2023/04/28 09:06:56;;;;;;;4.00;3.60;;;14.60;90.10;;;;;;6057258;23;20867;-64
2023/04/28 09:09:26;;;;;;;4.93;3.30;;;14.60;89.40;;;;;;6033062;23;20369;-65
2023/04/28 09:11:57;;;;;;;4.10;3.70;;;14.60;89.00;;;;;;6057167;23;20413;-65
2023/04/28 09:14:26;;;;;;;4.33;3.30;;;14.60;89.10;;;;;;6032793;23;20386;-65
2023/04/28 09:16:57;;;;;;;3.30;3.00;;;14.60;89.10;;;;;;6057193;23;20401;-64
2023/04/28 09:19:34;;;;;;;3.60;3.30;;;14.60;88.50;;;;;;6059801;23;20413;-64
2023/04/28 09:22:04;;;;;;;3.40;3.07;;;14.60;89.20;;;;;;6033090;23;20512;-64
2023/04/28 09:24:53;;;;;;;2.83;2.50;;;14.60;88.30;;;;;;6056052;23;20424;-65
2023/04/28 09:27:27;;;;;;;3.17;2.80;;;14.60;87.80;;;;;;6057029;23;20374;-64
2023/04/28 09:29:56;;;;;;;3.57;3.07;;;14.60;87.80;;;;;;6059065;23;20393;-64
2023/04/28 09:32:27;;;;;;;2.77;2.43;;;14.60;87.80;;;;;;6057143;23;20942;-65
2023/04/28 09:34:56;;;;;;;4.10;2.80;;;14.60;87.80;;;;;;6032326;23;20380;-65
2023/04/28 09:37:29;;;;;;;3.00;2.70;;;14.60;87.80;;;;;;6030988;23;20432;-64
2023/04/28 09:40:03;;;;;;;2.40;2.20;;;14.60;87.80;;;;;;6032209;23;20392;-64
2023/04/28 09:42:33;;;;;;;2.30;1.90;;;14.60;87.80;;;;;;6029988;23;20923;-69
2023/04/28 09:45:03;;;;;;;2.27;2.00;;;14.60;87.80;;;;;;6055640;23;20918;-71
2023/04/28 09:47:34;;;;;;;2.80;2.10;;;14.60;87.80;;;;;;6029900;23;20464;-72
2023/04/28 09:50:05;;;;;;;2.60;2.17;;;14.60;87.60;;;;;;6055355;23;20484;-72
2023/04/28 09:52:34;;;;;;;3.30;2.30;;;14.60;87.10;;;;;;6030459;23;20506;-65
2023/04/28 09:55:04;;;;;;;1.90;1.63;;;14.60;87.80;;;;;;6030985;23;20424;-65
2023/04/28 09:57:34;;;;;;;2.50;2.30;;;14.60;87.80;;;;;;6031989;23;20437;-65
2023/04/28 10:00:05;;;;;;;2.93;2.07;;;14.60;87.80;;;;;;6032099;23;20455;-72
2023/04/28 10:02:37;;;;;;;2.30;2.10;;;14.60;87.80;;;;;;6054906;23;20540;-73
2023/04/28 10:05:09;;;;;;;2.00;1.80;;;14.60;90.20;;;;;;6031624;23;20686;-72
2023/04/28 10:07:39;;;;;;;2.50;2.10;;;14.60;90.20;;;;;;6031812;23;20445;-72
2023/04/28 10:10:08;;;;;;;2.23;2.03;;;14.60;89.50;;;;;;6031256;23;20397;-73
2023/04/28 10:12:37;;;;;;;2.93;2.63;;;14.60;88.90;;;;;;6032365;23;20516;-71
2023/04/28 10:15:09;;;;;;;2.30;2.10;;;14.60;89.60;;;;;;6031913;23;20431;-72
2023/04/28 10:17:39;;;;;;;2.40;2.20;;;14.60;88.60;;;;;;6031333;23;20436;-72
2023/04/28 10:20:09;;;;;;;2.20;2.00;;;14.60;89.80;;;;;;6009715;23;20381;-72
2023/04/28 10:23:01;;;;;;;2.20;2.00;;;14.60;89.80;;;;;;6032292;23;20564;-71
2023/04/28 10:25:32;;;;;;;2.13;1.93;;;14.60;90.00;;;;;;6031688;23;20417;-73
2023/04/28 10:28:04;;;;;;;2.30;2.10;;;14.60;89.40;;;;;;6030865;23;20444;-72
2023/04/28 10:30:33;;;;;;;2.40;2.20;;;14.60;88.90;;;;;;6031450;23;20417;-67
2023/04/28 10:33:28;;;;;;;2.63;2.00;;;14.60;89.20;;;;;;6030669;23;20441;-65
2023/04/28 10:35:57;;;;;;;2.63;2.27;;;14.60;88.20;;;;;;6031047;23;20401;-66
2023/04/28 10:38:25;;;;;;;2.73;2.53;;;14.60;88.90;;;;;;6031101;23;20506;-64
2023/04/28 10:40:54;;;;;;;2.30;2.10;;;14.60;88.20;;;;;;6030708;23;20401;-66
2023/04/28 10:43:38;;;;;;;2.30;2.10;;;14.60;88.90;;;;;;6030718;23;20460;-66
2023/04/28 10:46:10;;;;;;;2.20;2.00;;;14.60;88.90;;;;;;6030611;23;20393;-64
2023/04/28 10:49:07;;;;;;;2.20;2.00;;;14.60;88.80;;;;;;6031551;23;20452;-65
2023/04/28 10:51:36;;;;;;;4.10;2.20;;;14.70;87.90;;;;;;6055439;23;20506;-65
2023/04/28 10:54:27;;;;;;;1.90;1.80;;;14.70;88.30;;;;;;6031751;23;20425;-64
2023/04/28 10:57:18;;;;;;;2.30;2.10;;;14.70;89.10;;;;;;6053153;23;20437;-65
2023/04/28 10:59:47;;;;;;;1.90;1.70;;;14.70;88.70;;;;;;6032073;23;20378;-64
2023/04/28 11:02:40;;;;;;;1.80;1.50;;;14.70;88.50;;;;;;6031209;23;20409;-66
2023/04/28 11:05:18;;;;;;;2.63;2.13;;;14.70;87.90;;;;;;6057216;23;20444;-65
2023/04/28 11:08:31;;;;;;;2.00;1.80;;;14.70;88.40;;;;;;6055857;23;20432;-66
2023/04/28 11:11:16;;;;;;;3.20;1.70;;;14.70;87.90;;;;;;6031256;23;20925;-66
2023/04/28 11:13:46;;;;;;;2.20;2.00;;;14.70;88.00;;;;;;6056754;23;20933;-66
2023/04/28 11:16:20;;;;;;;2.23;1.97;;;14.70;87.90;;;;;;6030495;23;20392;-64
2023/04/28 11:18:57;;;;;;;3.00;2.30;;;14.80;89.10;;;;;;6032656;23;20495;-65
2023/04/28 11:21:30;;;;;;;2.20;2.00;;;14.80;92.00;;;;;;6033390;23;20600;-65
2023/04/28 11:23:59;;;;;;;2.10;1.97;;;14.80;92.30;;;;;;6032447;23;20473;-64
2023/04/28 11:26:28;;;;;;;3.00;2.70;;;14.80;92.70;;;;;;6057589;23;20952;-65
2023/04/28 11:28:58;;;;;;;2.30;2.10;;;14.80;92.20;;;;;;6033198;23;20777;-64
2023/04/28 11:31:27;;;;;;;2.20;1.93;;;14.80;92.10;;;;;;6031820;23;20487;-64
2023/04/28 11:34:00;;;;;;;3.50;2.17;;;14.80;92.10;;;;;;6057898;23;20712;-65
2023/04/28 11:36:32;;;;;;;2.13;1.93;;;14.80;91.70;;;;;;6056264;23;20756;-66
2023/04/28 11:39:03;;;;;;;2.70;2.43;;;14.80;91.70;;;;;;6057566;23;20393;-66
2023/04/28 11:41:33;;;;;;;2.13;1.80;;;14.80;91.30;;;;;;6032337;23;20458;-65
2023/04/28 11:44:09;;;;;;;3.63;1.80;;;14.80;91.30;;;;;;6032004;23;20447;-64
2023/04/28 11:46:45;;;;;;;2.30;2.07;;;14.80;91.00;;;;;;6030689;23;20874;-66
2023/04/28 11:49:14;;;;;;;2.23;1.70;;;14.80;91.30;;;;;;6058435;23;20400;-65
2023/04/28 11:51:45;;;;;;;2.40;1.87;;;14.80;90.70;;;;;;6033296;23;20466;-65
2023/04/28 11:54:14;;;;;;;1.80;1.57;;;14.80;90.40;;;;;;6033531;23;20385;-65
2023/04/28 11:56:43;;;;;;;2.00;1.80;;;14.80;90.40;;;;;;6032305;23;20432;-72
2023/04/28 11:59:13;;;;;;;2.67;1.80;;;14.80;90.40;;;;;;6034348;23;20610;-72
2023/04/28 12:01:46;;;;;;;2.40;2.20;;;14.80;90.30;;;;;;6032492;23;20420;-72
2023/04/28 12:04:26;;;;;;;1.90;1.70;;;14.80;90.30;;;;;;6033382;23;20416;-72
2023/04/28 12:07:09;;;;;;;3.00;2.37;;;14.80;90.30;;;;;;6032686;23;20524;-72
2023/04/28 12:09:39;;;;;;;1.90;1.70;;;14.90;90.20;;;;;;6033198;23;20393;-73
2023/04/28 12:12:10;;;;;;;2.03;1.83;;;14.80;90.20;;;;;;6059122;23;20508;-72
2023/04/28 12:14:56;;;;;;;2.20;2.00;;;14.80;90.10;;;;;;6056956;23;20396;-71
2023/04/28 12:17:25;;;;;;;2.50;2.10;;;14.80;90.10;;;;;;6032285;23;20761;-72
2023/04/28 12:19:54;;;;;;;2.10;1.90;;;14.80;90.00;;;;;;6034147;23;20408;-65
2023/04/28 12:22:24;;;;;;;1.83;1.73;;;14.90;90.10;;;;;;6033518;23;20827;-64
2023/04/28 12:25:06;;;;;;;2.13;1.77;;;14.90;90.10;;;;;;6032322;23;20429;-64
2023/04/28 12:27:37;;;;;;;2.00;1.80;;;14.90;90.10;;;;;;6033480;23;20417;-64
2023/04/28 12:30:24;;;;;;;2.80;2.20;;;14.90;90.10;;;;;;6033436;23;20859;-63
2023/04/28 12:32:54;;;;;;;1.87;1.63;;;14.90;90.00;;;;;;6056580;23;20776;-64
2023/04/28 12:35:24;;;;;;;1.97;1.70;;;14.90;89.90;;;;;;6033455;23;20388;-64
2023/04/28 12:37:55;;;;;;;1.70;1.60;;;14.90;89.60;;;;;;6032594;23;20440;-65
2023/04/28 12:40:24;;;;;;;1.70;1.50;;;14.90;89.50;;;;;;6033119;23;20373;-64
2023/04/28 12:42:52;;;;;;;2.30;1.60;;;14.90;89.30;;;;;;6032723;23;20860;-63
2023/04/28 12:45:21;;;;;;;2.37;2.00;;;14.90;89.40;;;;;;6033314;23;20693;-64
2023/04/28 12:47:49;;;;;;;1.90;1.70;;;14.90;89.40;;;;;;6032407;23;20436;-64
2023/04/28 12:50:18;;;;;;;2.10;1.90;;;14.90;89.40;;;;;;6033789;23;20389;-66
2023/04/28 12:52:46;;;;;;;2.10;1.73;;;14.90;89.40;;;;;;6009189;23;20437;-65
2023/04/28 12:55:16;;;;;;;2.20;1.77;;;14.90;89.40;;;;;;6032822;23;20389;-64
2023/04/28 12:57:45;;;;;;;2.53;1.97;;;14.90;89.20;;;;;;6031770;23;20389;-73
2023/04/28 13:00:16;;;;;;;2.50;2.30;;;15.10;92.20;;;;;;6056332;23;20910;-72
2023/04/28 13:02:45;;;;;;;2.67;2.47;;;15.40;93.60;;;;;;6055731;23;20521;-72
2023/04/28 13:05:14;;;;;;;3.70;2.77;;;15.70;94.00;;;;;;6032895;23;20425;-72
2023/04/28 13:07:44;;;;;;;4.27;2.80;;;15.90;93.10;;;;;;6034509;23;20726;-63
2023/04/28 13:10:12;;;;;;;3.03;2.50;;;16.10;92.70;;;;;;6033459;23;20412;-64